Date,TemperatureHighF,TemperatureAvgF,TemperatureLowF,DewpointHighF,DewpointAvgF,DewpointLowF,HumidityHigh,HumidityAvg,HumidityLow,PressureMaxIn,PressureMinIn,WindSpeedMaxMPH,WindSpeedAvgMPH,GustSpeedMaxMPH,PrecipitationSumIn
2014-1-1,36.7,23.1,11.6,28.2,18.3,6.9,88,82,71,30.44,29.97,14,6,18,0.00
2014-1-2,30.5,16.7,2.4,21.2,11.1,-1.2,87,79,67,30.56,30.44,9,2,9,0.00
2014-1-3,45.1,32.2,18.1,28.9,21.6,13.4,83,66,49,30.45,29.73,12,8,22,0.00
2014-1-4,41.8,29.4,17.7,30.6,21.4,14.1,89,72,57,30.12,29.68,14,8,22,0.00
2014-1-5,18.1,11.3,1.6,15.4,3.3,-4.8,89,71,53,30.70,30.08,14,8,20,0.00
2014-1-6,14.7,5.4,-5.2,0.9,-5.6,-13.4,73,60,46,30.77,30.49,8,3,12,0.00
2014-1-7,38.9,24.6,7.8,26.7,16.1,0.4,82,70,59,30.49,30.16,7,3,13,0.00
2014-1-8,38.2,33.2,29.1,25.2,22.9,20.7,77,66,57,30.31,30.15,7,4,11,0.00
2014-1-9,35.2,29.8,24.0,33.1,26.3,19.4,95,87,76,30.30,29.96,5,3,9,0.00
2014-1-10,43.2,37.1,32.3,40.0,34.9,29.4,96,92,75,29.96,29.59,8,3,13,0.09
2014-1-11,52.6,39.6,27.6,36.7,31.4,24.8,95,74,47,29.99,29.75,6,2,9,0.00
2014-1-12,63.8,47.5,38.0,37.7,31.7,26.8,74,56,34,29.87,29.45,9,4,13,0.00
2014-1-13,52.4,40.4,31.9,35.8,28.7,24.8,85,65,36,29.99,29.72,10,2,14,0.00
2014-1-14,45.9,38.8,28.8,32.1,23.4,13.5,72,56,27,30.34,29.84,13,5,20,0.00
2014-1-15,50.0,35.8,21.6,28.4,24.7,18.3,89,66,40,30.34,29.88,9,3,12,0.00
2014-1-16,52.6,40.6,29.9,30.0,22.9,13.4,81,53,22,30.20,29.87,11,5,19,0.00
2014-1-17,44.4,32.8,24.8,20.6,17.3,13.7,73,54,29,30.28,30.02,9,3,14,0.00
2014-1-18,52.7,40.4,27.7,28.9,24.1,18.7,79,54,35,30.18,29.90,15,5,23,0.00
2014-1-19,65.3,41.7,25.1,29.0,24.7,20.7,85,57,23,30.18,29.89,15,4,20,0.00
2014-1-20,53.8,38.6,24.6,30.0,22.9,9.8,86,56,30,30.41,29.86,14,6,19,0.00
2014-1-21,29.2,19.7,8.9,11.2,2.6,-3.8,67,48,28,30.54,30.16,13,5,16,0.00
2014-1-22,42.0,29.3,15.8,23.6,15.5,-2.6,81,58,37,30.53,30.18,17,6,22,0.00
2014-1-23,19.9,10.7,5.4,-1.4,-4.8,-7.4,67,50,33,30.92,30.53,13,6,19,0.00
2014-1-24,49.0,28.9,8.4,23.9,10.5,-2.7,64,47,30,30.80,29.98,13,5,17,0.00
2014-1-25,56.6,44.6,34.2,35.8,29.5,23.9,75,56,39,30.09,29.83,11,3,17,0.00
2014-1-26,59.9,42.6,24.6,33.1,26.2,0.8,86,56,29,30.26,29.72,20,5,26,0.00
2014-1-27,24.2,15.8,11.9,2.7,-6.2,-9.5,43,37,30,30.57,30.26,17,8,25,0.00
2014-1-28,30.3,17.3,5.4,12.2,2.5,-4.0,73,53,30,30.58,30.39,11,2,14,0.00
2014-1-29,49.5,29.7,9.6,17.3,9.9,3.0,87,49,22,30.39,29.86,11,5,17,0.00
2014-1-30,49.4,37.7,32.1,25.7,18.4,11.5,59,46,34,29.98,29.63,11,7,19,0.00
2014-1-31,31.9,25.2,22.5,21.1,17.6,12.0,91,73,57,30.04,29.86,11,7,16,0.00
2014-2-1,28.7,24.6,19.8,22.8,20.2,14.3,92,83,75,30.32,29.86,11,6,18,0.00
2014-2-2,29.6,19.6,12.4,14.3,10.8,7.5,85,69,47,30.47,30.32,8,4,10,0.00
2014-2-3,38.9,26.0,11.0,17.1,11.2,7.6,88,58,30,30.37,30.15,8,3,13,0.01
2014-2-4,32.1,24.4,11.1,25.3,21.1,7.5,93,88,47,30.34,29.96,13,6,19,0.00
2014-2-5,11.0,6.6,2.6,7.6,1.1,-2.4,86,78,71,30.78,30.34,13,7,18,0.00
2014-2-6,11.0,6.8,3.2,-0.6,-2.5,-4.7,76,65,52,30.78,30.54,6,2,8,0.01
2014-2-7,17.5,12.8,6.6,14.8,6.3,-0.7,89,75,63,30.54,30.25,6,2,8,0.00
2014-2-8,28.7,24.5,17.5,26.1,21.5,14.6,93,88,83,30.25,30.08,5,2,10,0.00
2014-2-9,27.5,21.4,13.2,25.7,17.7,9.2,93,86,79,30.48,30.19,12,6,16,0.00
2014-2-10,16.1,13.2,10.5,9.7,8.1,6.4,88,80,73,30.56,30.45,9,5,13,0.00
2014-2-11,24.2,13.5,1.3,9.9,5.3,-2.4,87,70,53,30.55,30.30,6,2,8,0.01
2014-2-12,37.7,25.8,8.9,30.7,20.6,3.4,90,81,70,30.29,30.02,9,2,11,0.12
2014-2-13,46.3,34.6,25.5,32.5,28.4,22.9,91,79,58,30.02,29.74,5,2,6,0.02
2014-2-14,47.2,38.3,27.0,35.8,31.6,24.0,91,77,64,30.12,29.70,11,4,16,0.00
2014-2-15,55.0,38.6,29.4,38.8,30.9,24.9,89,75,51,30.11,29.91,10,4,16,0.00
2014-2-16,56.6,41.1,26.3,37.5,31.8,24.0,93,71,45,30.14,29.74,9,4,12,0.00
2014-2-17,60.5,48.9,39.0,37.5,31.8,26.2,83,54,28,30.09,29.72,12,5,23,0.00
2014-2-18,70.9,51.8,39.1,39.1,31.1,27.5,64,47,24,29.99,29.73,10,4,13,0.00
2014-2-19,57.2,45.7,30.7,45.3,31.1,26.3,86,60,34,30.00,29.47,9,3,13,0.00
2014-2-20,58.2,45.9,35.0,56.8,34.6,19.0,95,68,29,29.96,29.29,15,7,23,0.09
2014-2-21,60.2,40.8,25.5,26.6,23.0,20.0,80,54,23,29.98,29.88,18,5,26,0.00
2014-2-22,60.4,40.6,25.3,33.8,26.9,21.4,87,63,27,30.03,29.86,10,4,15,0.00
2014-2-23,39.3,31.4,22.9,27.6,19.7,14.1,81,62,46,30.36,30.02,15,8,24,0.00
2014-2-24,48.5,31.8,19.3,30.0,20.2,14.3,81,64,44,30.36,30.09,8,3,11,0.00
2014-2-25,28.7,22.8,17.6,21.3,16.5,7.2,86,77,58,30.58,30.26,13,7,17,0.00
2014-2-26,36.4,20.9,2.6,17.4,11.2,-1.2,88,68,38,30.56,30.12,10,4,14,0.00
2014-2-27,46.7,31.9,15.3,20.3,16.4,11.3,87,56,28,30.15,29.80,9,4,14,0.00
2014-2-28,47.9,39.8,32.4,38.8,29.6,17.5,88,67,51,30.03,29.66,11,5,16,0.00
2014-3-1,32.9,20.1,8.5,24.4,16.5,4.8,91,86,70,30.43,30.03,13,10,20,0.00
2014-3-2,8.4,5.8,3.7,5.1,0.2,-2.9,86,77,66,30.64,30.39,14,10,22,0.00
2014-3-3,18.2,8.9,-1.6,3.8,-2.0,-7.6,76,61,45,30.68,30.31,10,3,13,0.00
2014-3-4,35.3,24.3,11.5,25.8,15.1,1.2,78,68,61,30.31,30.03,7,3,10,0.01
2014-3-5,37.3,31.1,27.6,28.9,26.4,23.6,92,83,69,30.33,30.04,10,4,12,0.00
2014-3-6,44.4,33.7,26.6,36.5,30.6,25.1,95,89,73,30.31,29.93,7,2,10,0.00
2014-3-7,58.0,43.9,34.2,42.2,36.2,27.7,87,75,54,30.08,29.77,16,6,18,0.00
2014-3-8,42.7,32.4,24.5,28.0,22.9,20.5,86,69,42,30.39,30.08,14,7,19,0.00
2014-3-9,62.8,42.3,21.6,37.1,28.0,18.1,87,61,33,30.38,30.02,9,4,12,0.00
2014-3-10,77.8,55.7,32.4,40.2,32.2,25.3,77,45,20,30.02,29.65,6,3,11,0.00
2014-3-11,70.3,52.7,35.5,50.8,39.6,31.7,88,63,34,30.09,29.39,19,9,28,0.00
2014-3-12,57.7,42.1,31.0,35.5,29.3,24.6,90,65,28,30.30,30.09,13,4,15,0.00
2014-3-13,69.3,50.6,29.6,31.1,24.3,20.6,77,42,17,30.18,29.79,9,4,15,0.00
2014-3-14,66.0,53.0,34.1,31.6,25.0,13.1,71,36,13,29.99,29.77,13,5,16,0.00
2014-3-15,72.1,51.0,29.3,52.5,37.2,22.5,80,60,42,29.99,29.71,18,4,22,0.00
2014-3-16,45.8,37.4,26.0,31.5,23.0,17.2,81,59,34,30.26,29.96,18,11,28,0.00
2014-3-17,57.6,41.1,22.2,33.7,25.6,17.0,82,57,37,30.12,29.47,10,5,14,0.00
2014-3-18,63.0,49.7,36.6,38.0,32.6,29.3,79,53,36,29.86,29.33,13,7,25,0.00
2014-3-19,58.2,43.4,31.2,31.7,29.0,25.9,83,60,31,30.22,29.87,11,5,20,0.00
2014-3-20,71.9,53.1,32.4,33.0,27.3,20.7,77,42,15,30.13,29.83,13,4,16,0.00
2014-3-21,63.6,55.3,46.3,35.5,30.8,24.3,61,40,26,30.14,29.65,17,7,24,0.00
2014-3-22,48.3,37.5,28.8,31.2,20.4,8.9,76,53,28,30.49,30.13,13,10,21,0.00
2014-3-23,45.6,32.2,19.8,20.4,18.4,14.9,88,59,35,30.58,30.29,12,4,12,0.00
2014-3-24,46.9,36.4,25.8,33.4,23.8,17.4,76,61,43,30.32,30.20,14,3,17,0.00
2014-3-25,47.1,36.1,23.8,27.1,18.8,13.2,82,53,28,30.49,30.18,9,3,14,0.00
2014-3-26,52.6,42.2,34.2,41.9,32.3,17.9,93,70,42,30.18,29.60,13,9,26,0.03
2014-3-27,69.0,56.4,39.0,54.4,44.4,31.4,87,66,35,29.85,29.36,18,9,22,0.00
2014-3-28,56.8,41.0,33.4,37.9,31.1,27.2,83,69,47,30.17,29.85,10,4,12,0.00
2014-3-29,65.1,44.6,26.5,39.0,31.4,23.8,92,65,32,30.36,30.13,5,2,8,0.00
2014-3-30,75.2,61.2,47.7,39.6,36.3,31.2,60,41,26,30.13,29.66,13,8,23,0.00
2014-3-31,64.5,61.7,58.7,48.7,44.3,39.0,69,53,39,29.66,29.53,12,9,19,0.00
2014-4-1,50.7,49.2,47.1,33.2,32.0,31.1,54,51,50,29.93,29.92,5,3,8,0.00
2014-4-2,71.3,52.5,44.8,53.8,44.4,30.8,95,75,50,29.92,29.60,11,6,18,0.00
2014-4-3,49.2,45.4,38.2,48.1,43.2,34.2,97,92,83,29.98,29.54,8,5,12,0.00
2014-4-4,54.8,41.5,31.2,34.2,29.4,25.2,90,66,33,30.21,29.99,11,4,15,0.00
2014-4-5,64.3,48.2,27.8,32.8,29.1,23.9,88,52,27,30.16,29.96,9,4,15,0.00
2014-4-6,59.4,51.6,45.5,44.6,41.0,31.1,89,68,44,30.02,29.80,7,2,8,0.01
2014-4-7,60.3,48.1,36.3,46.8,40.4,32.8,92,75,53,29.98,29.76,11,3,18,0.00
2014-4-8,64.2,50.0,36.4,38.7,30.6,18.1,87,53,18,30.12,29.98,12,5,17,0.00
2014-4-9,82.8,59.0,31.4,43.0,33.7,21.5,74,43,21,30.12,29.74,11,5,16,0.00
2014-4-10,71.9,61.9,48.9,46.1,39.1,32.0,72,45,29,29.95,29.64,17,6,26,0.00
2014-4-11,80.2,63.8,48.2,56.7,39.9,29.4,71,43,26,30.01,29.81,9,4,14,0.00
2014-4-12,87.0,71.5,60.4,62.1,58.7,55.4,90,67,37,29.81,29.43,12,7,22,0.00
2014-4-13,76.3,58.1,34.4,63.4,50.5,31.5,90,76,62,29.89,29.36,16,8,23,0.00
2014-4-14,48.2,37.6,30.0,31.6,21.9,13.4,92,57,25,30.25,29.85,14,8,23,0.00
2014-4-15,62.2,45.0,21.5,27.4,21.2,16.6,83,45,21,30.25,29.92,8,3,12,0.00
2014-4-16,71.7,57.4,46.4,39.7,30.1,19.6,62,37,22,30.07,29.78,14,8,29,0.00
2014-4-17,52.7,42.0,35.9,36.4,32.7,28.9,83,70,52,30.32,30.08,10,4,13,0.00
2014-4-18,70.9,50.8,28.4,47.1,38.1,26.4,94,66,40,30.32,30.07,8,3,12,0.01
2014-4-19,80.0,65.0,52.2,52.5,47.5,41.0,71,54,38,30.11,29.93,11,6,18,0.00
2014-4-20,71.1,65.0,58.9,61.9,55.0,49.9,85,70,59,30.01,29.89,9,4,17,0.01
2014-4-21,79.4,65.0,53.0,58.9,49.9,32.2,95,63,28,30.05,29.91,11,4,15,0.00
2014-4-22,75.6,61.3,43.2,38.7,33.3,28.6,62,37,22,30.11,29.89,8,3,11,0.00
2014-4-23,85.3,69.8,54.9,57.2,45.3,35.2,60,42,30,29.89,29.49,12,7,22,0.02
2014-4-24,69.4,60.3,47.2,59.9,48.1,36.0,93,67,33,29.86,29.48,12,6,19,0.20
2014-4-25,80.3,63.3,39.7,45.5,41.3,35.4,87,50,24,29.92,29.70,10,4,17,0.00
2014-4-26,86.6,73.6,60.7,63.0,52.4,41.0,69,48,41,29.73,29.37,11,8,19,0.00
2014-4-27,78.7,70.2,57.6,65.8,52.7,34.7,92,59,21,29.41,29.11,16,8,21,0.21
2014-4-28,60.1,52.9,46.3,43.8,40.0,37.5,77,62,46,29.57,29.24,19,9,30,0.00
2014-4-29,49.2,44.8,40.6,41.4,38.7,36.9,91,79,66,29.99,29.55,10,6,18,0.10
2014-4-30,59.5,47.8,38.5,38.4,33.5,27.3,86,61,33,30.10,29.99,10,4,18,0.00
2014-5-1,63.9,50.2,38.4,38.5,33.4,30.1,75,54,34,30.08,29.98,10,3,13,0.00
2014-5-2,73.1,53.8,31.4,39.8,32.0,27.8,89,51,19,30.03,29.84,7,2,11,0.00
2014-5-3,89.7,69.1,41.4,43.1,36.4,30.1,74,34,16,29.89,29.74,7,3,10,0.00
2014-5-4,99.5,79.1,60.9,45.5,37.6,29.0,48,26,9,29.79,29.51,11,5,16,0.00
2014-5-5,86.9,74.6,60.7,56.7,46.7,35.0,67,39,22,29.61,29.54,7,2,12,0.00
2014-5-6,99.9,76.9,54.9,62.3,53.5,24.5,90,53,7,29.61,29.34,18,5,29,0.00
2014-5-7,93.3,78.7,66.8,64.7,61.3,55.0,83,59,28,29.58,29.43,14,7,23,0.00
2014-5-8,80.5,71.6,58.5,63.4,54.6,42.6,85,58,29,29.79,29.54,12,5,20,0.01
2014-5-9,76.5,60.9,46.8,47.0,43.4,41.0,81,55,30,29.92,29.76,11,3,15,0.00
2014-5-10,90.9,72.2,55.8,65.0,54.6,41.2,86,58,19,29.80,29.57,12,4,17,0.02
2014-5-11,88.7,77.2,66.3,67.8,64.1,60.6,90,66,41,29.64,29.42,21,10,32,0.54
2014-5-12,68.3,54.5,46.8,67.1,50.5,40.6,96,86,76,30.14,29.52,17,4,22,1.57
2014-5-13,63.2,53.1,45.4,41.5,38.4,33.7,81,60,34,30.29,30.14,14,4,23,0.00
2014-5-14,67.5,54.8,40.9,46.9,38.1,30.6,90,58,28,30.30,30.12,12,2,15,0.00
2014-5-15,64.5,53.1,43.8,43.0,37.4,28.3,85,59,30,30.22,30.09,11,3,16,0.00
2014-5-16,61.8,49.7,39.3,42.0,38.0,34.6,86,66,46,30.13,29.98,11,3,22,0.00
2014-5-17,63.4,52.3,39.5,43.9,40.3,37.0,91,67,41,30.18,30.09,10,2,14,0.00
2014-5-18,75.2,61.7,45.9,59.2,51.7,40.0,91,71,54,30.13,29.83,12,6,24,0.02
2014-5-19,87.7,74.9,64.2,63.6,60.6,57.8,82,63,42,29.83,29.56,22,9,27,0.00
2014-5-20,93.0,79.6,67.3,65.0,61.1,57.6,77,55,31,29.73,29.62,14,5,18,0.00
2014-5-21,90.0,78.1,68.8,72.6,63.4,59.0,81,62,38,29.90,29.72,7,2,13,0.00
2014-5-22,82.2,74.0,64.5,70.4,65.5,60.6,89,75,62,30.02,29.89,11,3,14,0.03
2014-5-23,72.6,66.4,61.4,66.6,63.2,58.7,96,89,78,30.04,29.96,8,3,13,1.32
2014-5-24,81.0,70.1,63.6,69.1,65.1,62.0,97,85,60,30.00,29.84,12,2,14,0.16
2014-5-25,81.7,69.1,63.9,71.0,65.1,61.8,95,88,68,29.94,29.83,15,3,15,0.11
2014-5-26,79.8,70.6,63.2,68.2,64.1,61.0,96,81,58,29.95,29.84,7,2,12,0.00
2014-5-27,79.4,69.2,61.1,68.5,64.0,59.0,95,84,65,29.93,29.85,8,1,10,0.00
2014-5-28,87.3,73.7,58.4,68.7,64.2,57.0,97,75,46,29.95,29.84,5,1,9,0.00
2014-5-29,85.9,75.4,63.6,71.4,65.7,62.0,96,74,46,29.90,29.81,8,1,13,0.00
2014-5-30,81.7,73.2,63.5,69.1,66.0,62.0,97,79,59,29.95,29.86,9,2,17,0.00
2014-5-31,83.5,73.9,62.8,70.0,66.0,61.0,97,78,56,29.98,29.83,7,2,15,0.00
2014-6-1,85.4,75.0,65.8,71.3,67.3,63.2,94,79,55,29.87,29.61,12,4,22,0.61
2014-6-2,83.5,73.2,63.5,72.3,67.3,62.0,97,83,66,29.92,29.73,11,2,13,0.00
2014-6-3,88.4,79.7,71.1,74.0,70.6,68.3,94,75,54,29.91,29.57,13,4,21,0.00
2014-6-4,89.6,80.0,71.3,75.5,70.7,66.7,88,74,59,29.70,29.52,14,4,19,0.00
2014-6-5,81.6,73.2,64.3,71.0,67.5,62.0,95,83,62,29.82,29.54,13,4,20,1.20
2014-6-6,79.4,71.1,64.1,71.8,67.7,62.6,97,89,75,29.91,29.73,9,2,14,0.07
2014-6-7,78.0,69.9,63.3,69.6,64.0,61.5,96,82,59,29.95,29.64,9,3,17,1.53
2014-6-8,76.2,67.7,61.0,65.0,61.5,59.0,94,81,62,30.00,29.81,8,3,12,0.00
2014-6-9,67.7,63.4,61.4,65.4,61.6,59.0,96,94,88,29.83,29.58,10,4,17,2.02
2014-6-10,78.5,67.7,61.2,65.0,61.4,59.0,96,82,56,29.83,29.70,15,4,17,0.34
2014-6-11,84.8,71.7,56.6,69.4,63.5,55.0,97,78,56,29.83,29.63,17,3,17,0.00
2014-6-12,75.3,68.1,58.2,67.2,60.0,55.0,93,77,54,30.01,29.71,12,5,21,0.24
2014-6-13,78.3,66.8,52.4,59.5,55.6,51.0,97,70,47,30.06,29.83,12,3,16,0.00
2014-6-14,87.3,77.3,66.5,72.4,66.3,58.0,83,69,53,29.83,29.48,17,8,28,0.00
2014-6-15,81.0,71.3,62.2,70.6,66.0,60.8,96,84,66,29.85,29.48,16,2,28,0.81
2014-6-16,88.4,79.7,71.4,75.1,72.1,69.0,95,79,63,29.85,29.62,16,7,29,0.01
2014-6-17,91.4,82.6,74.5,76.0,71.6,67.9,81,70,56,29.71,29.61,19,7,24,0.00
2014-6-18,89.7,82.4,74.9,74.9,71.6,68.7,82,70,57,29.76,29.68,14,6,22,0.00
2014-6-19,87.1,79.6,74.0,74.1,68.6,62.6,87,70,50,29.92,29.73,8,3,14,0.00
2014-6-20,92.1,81.1,69.7,73.0,68.4,63.5,96,68,41,29.98,29.82,11,3,16,0.00
2014-6-21,92.1,81.7,70.8,68.2,66.0,62.4,86,61,38,29.92,29.72,8,3,14,0.00
2014-6-22,92.3,79.2,64.3,71.5,67.5,60.9,94,69,46,29.84,29.62,17,3,23,1.29
2014-6-23,83.8,72.7,65.2,69.6,65.7,63.0,96,81,53,29.95,29.76,10,2,14,0.01
2014-6-24,83.0,69.4,63.3,69.4,64.9,61.0,97,87,58,29.98,29.92,7,2,12,0.60
2014-6-25,85.3,72.8,60.2,70.5,65.8,58.9,97,80,56,29.98,29.85,9,2,13,0.01
2014-6-26,79.6,73.7,67.1,73.1,69.3,64.0,93,86,70,29.90,29.70,14,4,18,0.14
2014-6-27,83.3,76.9,72.5,74.0,71.0,69.0,90,83,70,29.75,29.60,16,7,26,0.16
2014-6-28,79.2,71.8,63.1,71.6,66.4,61.0,94,84,63,29.84,29.62,13,3,24,0.54
2014-6-29,87.3,77.1,69.6,78.0,72.8,67.0,96,87,72,29.93,29.68,12,3,22,0.08
2014-6-30,93.1,83.1,70.9,78.4,73.9,68.0,91,75,56,29.76,29.58,18,5,24,0.54
2014-7-1,85.2,74.7,64.7,69.9,63.9,57.6,94,72,46,30.00,29.70,8,2,19,0.29
2014-7-2,79.6,68.9,57.1,60.6,55.8,51.5,94,66,41,30.14,30.00,13,3,17,0.00
2014-7-3,80.5,67.6,52.7,62.0,56.5,50.7,96,70,46,30.20,30.08,11,2,12,0.00
2014-7-4,85.0,74.2,62.2,67.6,62.8,57.6,86,69,53,30.18,30.03,10,5,17,0.00
2014-7-5,91.0,81.4,71.9,73.7,70.3,67.0,89,71,51,30.05,29.83,14,4,19,0.00
2014-7-6,95.6,83.4,72.8,80.0,71.5,68.0,86,69,45,29.86,29.73,9,3,16,0.00
2014-7-7,98.7,84.2,68.7,74.8,67.9,62.6,88,61,35,29.79,29.62,14,3,17,0.00
2014-7-8,86.7,75.7,64.9,66.2,61.9,55.9,91,65,37,29.98,29.73,13,3,24,0.02
2014-7-9,88.0,76.6,63.8,66.1,63.0,59.0,93,66,42,30.02,29.86,8,2,11,0.00
2014-7-10,84.3,74.3,64.6,72.3,66.7,62.3,95,78,63,30.00,29.86,10,5,17,0.77
2014-7-11,92.8,79.6,69.2,75.1,68.6,66.0,90,71,46,29.97,29.89,10,4,14,0.00
2014-7-12,92.1,82.1,71.9,72.7,67.7,63.9,78,63,46,29.98,29.86,10,3,17,0.00
2014-7-13,85.8,78.5,71.8,73.0,67.5,59.4,89,70,53,29.95,29.88,10,3,16,0.00
2014-7-14,89.1,75.4,65.1,72.4,64.6,55.0,96,72,47,30.10,29.90,11,3,21,0.00
2014-7-15,79.4,66.2,53.6,56.1,53.0,50.4,91,66,38,30.14,29.98,8,2,14,0.00
2014-7-16,69.6,63.9,58.0,61.0,57.0,53.0,93,79,68,30.04,29.98,7,2,11,0.00
2014-7-17,68.9,63.5,57.7,63.4,60.2,55.8,95,89,79,30.04,29.98,6,1,11,0.18
2014-7-18,75.0,66.7,60.7,62.3,60.5,58.0,95,81,63,30.05,29.94,9,3,13,0.00
2014-7-19,80.5,69.4,56.9,67.7,62.7,55.0,96,80,63,29.99,29.88,8,3,15,0.00
2014-7-20,89.2,76.8,65.6,76.1,69.2,62.6,91,78,63,29.90,29.77,12,5,17,0.00
2014-7-21,94.5,83.1,72.8,78.5,73.9,70.7,94,75,50,29.90,29.82,9,4,16,0.00
2014-7-22,97.9,85.8,75.7,77.3,74.8,71.9,92,71,45,29.97,29.88,8,2,14,0.00
2014-7-23,88.1,79.0,70.4,74.0,69.4,65.0,93,74,49,30.09,29.97,14,3,20,0.00
2014-7-24,88.3,77.2,64.1,72.0,68.0,62.2,95,75,57,30.04,29.84,8,4,13,0.00
2014-7-25,101.2,86.6,73.7,73.0,69.0,62.0,85,60,31,29.85,29.65,14,4,21,0.00
2014-7-26,100.3,86.2,75.6,81.3,68.8,65.0,75,58,35,29.78,29.68,9,3,15,0.00
2014-7-27,88.8,79.6,69.0,75.0,65.9,54.2,91,66,31,30.08,29.78,20,3,33,0.10
2014-7-28,85.8,73.2,61.2,65.7,60.8,57.6,89,67,41,30.23,30.06,10,2,13,0.02
2014-7-29,87.4,74.1,59.5,66.3,61.2,56.7,93,66,45,30.13,29.96,8,2,16,0.00
2014-7-30,71.2,66.9,60.5,65.2,62.2,58.8,95,85,70,30.07,29.98,8,2,13,0.38
2014-7-31,83.7,69.1,56.3,64.8,58.9,55.0,97,74,39,30.10,29.97,5,1,9,0.01
2014-8-1,89.9,73.9,61.6,65.5,60.3,53.0,92,67,31,30.01,29.93,6,2,14,0.00
2014-8-2,88.3,74.7,59.8,70.3,64.9,57.0,97,74,45,30.07,29.98,8,2,13,0.00
2014-8-3,90.6,78.1,64.5,69.0,64.1,60.2,94,65,38,30.07,29.93,9,2,14,0.00
2014-8-4,92.2,79.6,69.2,68.8,64.8,62.6,81,63,38,30.01,29.90,9,2,13,0.00
2014-8-5,92.4,80.5,69.3,68.3,65.3,62.8,85,62,39,29.98,29.88,8,3,16,0.00
2014-8-6,94.6,81.3,70.6,72.4,67.5,63.8,88,66,39,29.91,29.70,12,4,19,0.11
2014-8-7,86.9,76.8,68.5,73.4,69.8,64.5,92,80,61,29.86,29.77,9,2,14,0.25
2014-8-8,88.2,78.0,70.0,74.4,70.7,67.0,94,80,55,29.90,29.80,8,2,13,0.03
2014-8-9,90.8,78.4,70.2,75.3,71.4,68.0,94,80,56,29.95,29.83,9,2,11,0.04
2014-8-10,84.3,76.4,67.9,73.6,68.6,66.4,95,78,61,30.01,29.85,7,2,11,1.56
2014-8-11,83.9,73.7,63.3,70.4,63.2,55.4,95,73,38,30.08,30.00,10,3,16,0.00
2014-8-12,84.1,70.0,56.2,63.2,58.3,54.0,94,69,40,30.13,29.99,11,2,13,0.00
2014-8-13,85.8,71.6,57.6,68.2,61.6,55.0,93,73,49,30.10,29.96,8,2,10,0.00
2014-8-14,87.8,75.7,64.2,70.7,65.4,60.0,88,72,54,29.99,29.84,10,4,17,0.00
2014-8-15,90.4,79.7,71.1,75.1,68.6,65.9,84,70,48,29.86,29.72,9,3,14,0.01
2014-8-16,91.0,79.8,68.0,73.6,69.1,64.7,91,71,52,29.82,29.73,8,1,11,0.00
2014-8-17,93.4,79.3,66.2,75.8,70.0,64.0,94,75,49,29.93,29.77,26,1,29,0.00
2014-8-18,91.8,77.8,65.6,75.4,68.6,63.5,94,75,54,29.97,29.68,16,2,28,0.41
2014-8-19,94.1,81.5,66.2,72.3,67.0,60.2,89,63,42,29.79,29.67,7,2,12,0.00
2014-8-20,93.0,82.9,72.4,74.0,69.8,66.7,85,66,50,29.76,29.68,15,4,20,0.00
2014-8-21,96.8,85.7,76.0,73.1,70.3,67.6,78,61,41,29.80,29.72,10,5,19,0.00
2014-8-22,98.3,85.9,76.4,75.8,70.4,65.8,76,61,42,29.81,29.72,8,3,14,0.00
2014-8-23,98.4,85.2,71.5,68.4,62.8,54.6,73,50,24,29.80,29.69,13,4,22,0.00
2014-8-24,99.1,86.7,75.2,68.7,64.4,60.0,67,49,31,29.79,29.68,10,4,16,0.00
2014-8-25,97.8,85.8,73.7,71.0,67.9,64.9,80,57,38,29.90,29.76,7,3,12,0.00
2014-8-26,93.1,78.3,69.1,72.4,67.5,62.0,83,70,48,30.03,29.90,13,3,18,0.00
2014-8-27,87.6,80.4,70.6,73.5,68.5,66.4,89,68,54,30.03,29.88,5,1,8,0.00
2014-8-28,81.1,75.3,69.6,73.2,67.9,61.7,92,78,61,29.88,29.75,8,2,12,0.53
2014-8-29,84.2,73.8,66.4,70.8,66.7,63.5,93,80,57,29.83,29.74,9,2,13,0.12
2014-8-30,91.8,75.9,62.0,72.0,65.0,59.2,96,73,36,29.90,29.78,4,1,7,0.00
2014-8-31,95.2,80.2,67.5,73.0,67.2,62.3,90,68,39,29.80,29.51,19,5,27,0.12
2014-9-1,79.0,70.9,62.5,71.2,65.9,60.0,93,84,74,29.82,29.66,17,4,33,1.06
2014-9-2,85.8,75.7,69.0,73.0,69.0,66.0,94,81,57,29.93,29.81,10,2,13,0.70
2014-9-3,93.2,81.0,70.1,75.8,70.8,67.0,92,73,49,29.85,29.68,12,4,19,0.00
2014-9-4,93.7,84.1,75.5,70.2,66.6,62.5,73,57,38,29.85,29.72,10,5,22,0.00
2014-9-5,79.9,69.5,60.8,67.5,60.4,53.5,87,73,58,30.20,29.84,14,5,19,0.00
2014-9-6,75.1,63.8,53.9,58.2,55.0,50.0,92,76,42,30.24,30.14,8,3,12,0.05
2014-9-7,79.6,64.1,49.1,60.7,53.6,47.0,95,72,40,30.18,29.98,4,1,9,0.00
2014-9-8,88.4,73.7,56.7,69.9,64.1,53.2,93,74,52,30.01,29.76,11,3,18,0.00
2014-9-9,94.4,83.3,72.4,71.6,68.3,65.0,87,63,40,29.80,29.47,16,6,23,0.00
2014-9-10,83.3,68.1,60.6,70.0,63.4,57.0,92,85,60,29.97,29.47,12,4,20,0.22
2014-9-11,66.1,59.5,55.7,57.1,54.1,51.5,89,82,71,30.20,29.97,9,6,15,0.00
2014-9-12,56.8,52.1,49.3,51.6,47.6,43.7,92,85,77,30.43,30.18,12,6,19,0.08
2014-9-13,67.0,53.0,37.1,50.0,42.4,35.0,94,70,38,30.42,30.19,10,2,12,0.00
2014-9-14,80.6,64.3,46.1,63.1,54.9,43.9,93,73,54,30.21,29.97,10,3,17,0.00
2014-9-15,77.2,68.0,61.9,67.2,61.9,55.0,90,81,69,30.17,29.95,15,4,18,0.00
2014-9-16,78.7,65.6,55.4,65.0,57.2,51.0,89,75,60,30.18,29.92,7,3,12,0.00
2014-9-17,92.9,76.4,66.0,72.1,67.4,63.0,93,76,44,29.92,29.71,10,2,13,0.00
2014-9-18,86.4,73.8,66.5,68.4,64.4,59.6,92,75,41,29.92,29.75,14,5,20,0.00
2014-9-19,89.5,74.7,62.3,71.5,65.8,59.9,93,76,47,29.91,29.81,10,3,14,0.00
2014-9-20,82.9,71.6,67.4,70.9,67.3,64.7,92,87,67,29.92,29.86,8,2,12,0.00
2014-9-21,77.4,68.8,53.7,60.3,54.0,48.5,90,62,37,30.21,30.09,9,3,14,0.00
2014-9-22,77.9,63.1,48.3,56.4,50.5,46.0,94,67,36,30.29,30.12,5,1,12,0.00
2014-9-23,77.6,69.2,59.1,58.0,55.5,52.2,83,63,49,30.15,29.98,14,6,20,0.02
2014-9-24,76.8,64.6,58.8,63.5,58.7,55.5,92,82,62,30.12,30.03,12,3,16,0.12
2014-9-25,84.6,70.2,58.3,62.7,57.1,53.0,87,65,44,30.15,30.04,6,2,10,0.00
2014-9-26,82.3,68.5,56.3,61.0,56.8,53.0,91,69,43,30.09,30.00,10,2,13,0.00
2014-9-27,82.7,69.4,56.3,61.6,57.8,53.7,92,69,44,30.06,29.94,10,3,13,0.00
2014-9-28,83.4,68.6,57.2,63.4,57.8,54.4,92,71,41,30.06,29.97,10,2,12,0.00
2014-9-29,84.3,70.1,55.9,65.8,58.8,54.0,94,71,41,30.02,29.84,6,2,13,0.00
2014-9-30,83.7,73.2,62.5,65.5,61.7,57.8,85,68,49,29.87,29.60,12,5,19,0.00
2014-10-1,87.8,74.1,65.2,69.2,64.4,55.9,91,74,35,29.66,29.56,9,2,16,0.04
2014-10-2,68.3,61.0,49.8,63.0,56.4,47.3,95,85,71,29.92,29.58,10,3,21,0.02
2014-10-3,59.9,50.1,39.4,48.0,38.6,31.5,94,68,35,30.28,29.92,16,4,26,0.02
2014-10-4,72.1,51.3,33.7,47.2,35.5,30.6,90,60,26,30.18,29.83,6,1,11,0.00
2014-10-5,80.4,64.0,47.1,51.4,44.7,39.9,85,53,26,29.84,29.75,9,2,20,0.00
2014-10-6,81.3,62.9,48.1,53.6,48.1,45.0,92,64,28,29.86,29.66,13,2,17,0.00
2014-10-7,85.0,67.2,50.9,54.3,50.1,46.3,88,59,28,29.96,29.70,10,2,13,0.00
2014-10-8,79.6,66.9,54.8,64.4,55.3,46.7,87,68,45,30.00,29.84,13,4,18,0.00
2014-10-9,81.6,69.6,58.2,67.8,63.9,55.9,92,83,57,29.93,29.80,11,3,20,0.06
2014-10-10,58.2,50.9,46.2,56.0,47.5,40.8,93,88,78,30.19,29.90,14,8,22,1.01
2014-10-11,62.4,50.9,44.4,48.0,43.1,40.0,91,76,47,30.21,29.99,8,2,10,0.00
2014-10-12,65.1,53.1,40.6,54.3,47.6,38.6,94,83,62,30.00,29.60,13,3,22,0.26
2014-10-13,61.4,54.9,52.2,53.3,49.0,41.8,93,81,58,29.85,29.61,17,6,26,0.56
2014-10-14,67.9,54.7,45.1,46.1,41.6,38.6,82,64,35,30.03,29.84,10,2,20,0.00
2014-10-15,73.1,54.2,38.1,49.0,42.9,35.6,93,70,37,30.11,29.88,6,1,10,0.00
2014-10-16,75.4,61.5,50.6,57.0,50.3,44.8,91,68,45,29.88,29.71,7,2,12,0.00
2014-10-17,69.7,55.6,44.5,50.6,46.5,40.8,90,73,47,30.11,29.84,8,2,14,0.00
2014-10-18,64.2,51.8,41.2,48.7,43.9,38.0,92,76,47,30.25,30.11,8,2,11,0.00
2014-10-19,68.1,54.9,41.7,56.0,48.2,39.5,93,79,56,30.16,29.98,7,2,13,0.00
2014-10-20,78.0,61.3,47.4,60.2,50.8,45.0,95,73,34,30.05,29.98,8,2,16,0.00
2014-10-21,79.6,61.6,45.1,62.0,53.4,42.9,95,77,48,30.08,29.95,9,2,13,0.00
2014-10-22,77.8,65.8,55.9,59.6,57.0,53.0,92,75,47,30.06,29.97,10,3,22,0.07
2014-10-23,72.6,63.7,58.1,63.4,59.0,55.8,93,85,73,30.06,29.97,4,1,7,0.00
2014-10-24,81.8,66.7,56.9,66.0,60.3,54.9,93,81,56,30.02,29.92,7,2,11,0.01
2014-10-25,89.2,69.0,51.6,66.7,58.4,49.6,95,73,35,30.02,29.87,7,1,11,0.01
2014-10-26,87.2,73.7,61.7,60.3,57.1,52.0,81,59,39,29.87,29.53,12,4,25,0.00
2014-10-27,70.9,65.1,55.2,55.3,49.9,40.7,69,58,44,29.96,29.46,13,4,18,0.00
2014-10-28,66.8,52.0,38.5,44.3,39.7,35.5,91,66,33,30.18,29.96,9,1,12,0.00
2014-10-29,71.0,52.2,34.7,42.0,36.6,31.8,92,60,31,30.24,30.05,9,2,12,0.00
2014-10-30,71.0,57.5,43.0,43.0,38.7,35.8,81,51,31,30.26,29.99,12,4,19,0.00
2014-10-31,52.0,40.9,25.8,39.4,28.1,18.8,82,63,32,30.51,30.27,16,6,21,0.00
2014-11-1,54.5,41.2,25.2,26.0,21.1,16.9,84,49,24,30.46,30.17,13,5,19,0.00
2014-11-2,62.5,53.6,46.0,48.0,38.1,25.0,71,56,40,30.17,29.92,15,8,25,0.00
2014-11-3,66.0,56.9,47.8,57.3,49.3,40.6,88,76,68,30.11,29.87,16,6,20,0.09
2014-11-4,52.6,46.0,41.5,43.1,39.9,38.0,88,80,62,30.26,30.11,8,1,13,0.00
2014-11-5,68.5,49.7,34.9,42.0,37.1,32.5,93,67,32,30.27,30.10,12,2,15,0.01
2014-11-6,59.1,46.8,34.8,36.1,31.2,25.8,81,58,28,30.43,30.26,12,3,19,0.00
2014-11-7,68.5,53.2,37.3,46.4,37.5,28.6,74,56,41,30.26,29.80,11,3,21,0.00
2014-11-8,60.5,48.1,35.0,42.4,34.3,28.0,79,61,34,30.26,30.00,13,4,20,0.00
2014-11-9,68.1,51.8,39.3,46.6,39.5,29.6,83,64,44,30.05,29.57,10,2,12,0.00
2014-11-10,71.8,51.8,30.3,48.5,39.8,19.9,77,65,36,29.96,29.30,27,7,33,0.00
2014-11-11,33.2,26.7,20.2,20.0,12.8,7.0,74,57,34,30.52,29.96,27,9,31,0.00
2014-11-12,24.9,21.1,16.1,10.6,5.7,1.9,72,52,39,30.68,30.52,16,6,19,0.00
2014-11-13,30.4,21.4,13.7,12.0,8.9,6.0,81,59,41,30.72,30.55,10,4,16,0.00
2014-11-14,36.0,25.8,14.2,14.2,12.1,9.4,84,58,37,30.57,30.29,11,2,13,0.00
2014-11-15,37.6,32.4,25.3,25.0,19.8,13.0,76,60,52,30.29,30.06,10,3,18,0.00
2014-11-16,27.9,18.5,9.5,20.7,12.1,5.0,87,76,61,30.34,30.19,12,3,18,0.01
2014-11-17,29.6,19.4,5.6,14.7,9.3,0.8,81,65,45,30.46,30.33,12,1,14,0.00
2014-11-18,39.3,22.5,0.6,30.0,15.5,-3.1,88,75,57,30.45,30.07,7,1,11,0.01
2014-11-19,47.6,35.2,24.5,30.1,24.5,18.6,86,66,43,30.24,30.06,9,2,17,0.00
2014-11-20,49.2,33.4,20.9,29.0,23.0,16.0,85,67,43,30.23,30.13,11,2,14,0.00
2014-11-21,43.2,36.6,28.8,41.6,32.8,23.0,94,86,74,30.21,30.05,6,1,9,0.00
2014-11-22,59.5,50.1,41.1,56.0,47.8,39.2,95,92,85,30.07,29.60,9,2,17,0.01
2014-11-23,55.7,48.5,39.8,52.0,44.5,29.8,92,86,65,29.68,29.36,22,5,34,0.10
2014-11-24,49.6,38.7,28.1,30.3,25.0,20.0,78,59,37,30.20,29.68,10,3,22,0.00
2014-11-25,50.8,37.3,22.7,30.2,24.9,17.7,85,63,39,30.28,29.97,10,2,17,0.00
2014-11-26,46.2,39.7,29.7,33.3,27.5,22.0,76,62,46,30.49,29.96,15,4,25,0.00
2014-11-27,44.9,33.5,18.0,25.5,20.4,14.8,89,61,34,30.56,30.16,10,3,15,0.00
2014-11-28,61.6,47.4,36.3,41.3,34.0,25.7,79,61,43,30.16,29.71,13,4,17,0.00
2014-11-29,69.3,53.5,36.4,43.0,38.8,32.7,92,62,26,29.71,29.54,11,2,13,0.00
2014-11-30,53.3,31.0,20.8,42.5,18.6,5.0,85,61,44,30.50,29.54,19,9,25,0.00
2014-12-1,31.3,21.7,14.0,6.8,2.9,-0.1,69,45,26,30.74,30.50,15,6,21,0.00
2014-12-2,42.9,27.3,13.7,16.0,11.3,5.7,76,54,30,30.51,30.11,15,2,17,0.00
2014-12-3,46.7,34.5,21.8,21.0,17.7,14.0,81,53,29,30.40,30.19,14,3,18,0.00
2014-12-4,52.1,42.8,37.1,43.0,33.2,20.9,91,69,52,30.23,30.02,4,1,9,0.21
2014-12-5,54.6,45.1,35.2,49.4,42.7,33.0,93,91,82,30.32,30.00,9,1,12,0.51
2014-12-6,41.4,37.9,32.4,39.8,35.6,29.6,94,91,86,30.57,30.32,8,3,12,0.00
2014-12-7,46.1,40.8,37.7,44.5,39.2,36.0,95,94,92,30.50,30.22,10,3,12,0.04
2014-12-8,57.6,44.2,33.3,44.5,36.9,31.4,95,77,43,30.36,30.24,7,1,11,0.00
2014-12-9,44.8,36.0,28.4,33.4,29.9,25.6,89,79,62,30.45,30.30,9,2,13,0.00
2014-12-10,44.1,37.1,30.7,38.7,32.9,27.8,91,85,74,30.31,30.17,7,2,11,0.00
2014-12-11,46.6,41.6,37.0,42.2,38.6,34.6,93,89,84,30.25,30.18,3,0,7,0.00
2014-12-12,52.4,48.0,45.6,49.0,45.2,41.9,93,90,86,30.26,30.17,11,2,12,0.00
2014-12-13,55.3,51.4,48.2,53.3,49.6,46.0,94,93,93,30.18,29.90,12,5,16,0.00
2014-12-14,58.6,56.2,50.7,55.4,53.3,47.0,93,90,84,29.90,29.52,14,6,22,0.49
2014-12-15,53.5,40.4,32.7,50.9,35.1,25.6,91,81,74,30.13,29.49,18,6,24,0.00
2014-12-16,39.7,32.0,27.3,29.0,25.5,23.0,86,77,63,30.40,30.13,15,5,26,0.00
2014-12-17,31.9,29.0,25.9,28.1,25.5,22.0,92,87,82,30.38,30.20,8,3,12,0.00
2014-12-18,34.0,30.6,29.2,31.5,28.3,27.0,93,91,89,30.31,30.19,6,1,9,0.15
2014-12-19,36.7,32.8,29.4,34.3,30.6,27.0,92,91,90,30.32,30.20,5,1,9,0.04
2014-12-20,49.4,40.4,32.8,42.2,36.5,30.7,93,86,74,30.21,30.07,8,3,15,0.01
2014-12-21,44.4,42.3,39.8,43.0,39.8,36.8,93,91,86,30.07,29.64,8,4,18,0.02
2014-12-22,53.0,44.4,36.7,44.9,39.6,30.9,94,84,62,29.65,29.52,13,3,16,0.01
2014-12-23,38.1,35.8,33.3,34.0,31.4,29.0,91,84,75,29.99,29.65,11,6,18,0.03
2014-12-24,42.9,34.8,32.0,34.2,29.4,25.8,90,81,61,30.00,29.80,12,4,21,0.01
2014-12-25,54.1,44.2,32.7,33.7,30.1,25.7,76,59,44,29.80,29.59,20,7,28,0.00
2014-12-26,46.7,35.3,31.8,33.0,31.1,28.0,90,85,58,30.17,29.74,10,4,13,0.00
2014-12-27,34.6,27.1,17.0,28.4,20.6,14.0,89,77,59,30.40,30.17,10,3,16,0.00
2014-12-28,41.8,26.3,13.6,27.7,19.2,11.0,91,76,49,30.35,30.15,7,1,10,0.00
2014-12-29,40.0,29.3,19.1,28.4,22.6,16.0,89,77,54,30.55,30.20,16,4,23,0.00
2014-12-30,24.8,13.6,7.3,21.4,7.8,-0.7,88,78,62,30.87,30.55,17,8,23,0.00
2014-12-31,16.1,11.7,6.4,11.0,3.8,-1.1,80,70,59,30.87,30.47,10,2,13,0.00
2015-1-1,30.2,25.1,15.7,26.2,19.8,10.5,87,80,71,30.48,30.23,7,1,12,0.00
2015-1-2,36.9,32.6,27.7,31.3,28.8,25.0,91,86,78,30.27,30.02,4,1,7,0.00